Time;durP1;ratioP1;P1;durP2;ratioP2;P2;SDS_P1;SDS_P2;PMS_P1;PMS_P2;Temp;Humidity;BMP_temperature;BMP_pressure;BME280_temperature;BME280_humidity;BME280_pressure;Samples;Min_cycle;Max_cycle;Signal;HPM_P1;HPM_P2
2022/08/26 00:01:16;;;;;;;0.00;0.00;;;;;;;;;;5062379;28;20239;-72
2022/08/26 00:03:43;;;;;;;0.00;0.00;;;;;;;;;;5070587;28;20204;-74
2022/08/26 00:06:10;;;;;;;0.00;0.00;;;;;;;;;;5062369;28;20258;-72
2022/08/26 00:08:36;;;;;;;0.10;0.10;;;;;;;;;;5071318;28;20204;-73
2022/08/26 00:11:02;;;;;;;0.00;0.00;;;;;;;;;;5061249;28;20247;-73
2022/08/26 00:13:30;;;;;;;0.00;0.00;;;;;;;;;;5072170;28;20275;-73
2022/08/26 00:15:57;;;;;;;0.00;0.00;;;;;;;;;;5060638;28;20262;-73
2022/08/26 00:18:23;;;;;;;0.00;0.00;;;;;;;;;;5072620;28;20204;-73
2022/08/26 00:20:49;;;;;;;0.00;0.00;;;;;;;;;;5059520;28;20246;-72
2022/08/26 00:23:16;;;;;;;0.00;0.00;;;;;;;;;;5073643;28;20386;-73
2022/08/26 00:25:43;;;;;;;0.00;0.00;;;;;;;;;;5058344;28;20361;-73
2022/08/26 00:28:10;;;;;;;0.00;0.00;;;;;;;;;;5074225;28;20275;-74
2022/08/26 00:30:37;;;;;;;0.00;0.00;;;;;;;;;;5057557;28;20574;-73
2022/08/26 00:33:04;;;;;;;0.00;0.00;;;;;;;;;;5074984;28;20208;-73
2022/08/26 00:35:33;;;;;;;0.00;0.00;;;;;;;;;;5056952;28;20306;-73
2022/08/26 00:38:00;;;;;;;0.00;0.00;;;;;;;;;;5075391;28;20403;-74
2022/08/26 00:40:27;;;;;;;0.00;0.00;;;;;;;;;;5056300;28;20251;-72
2022/08/26 00:42:54;;;;;;;0.00;0.00;;;;;;;;;;5075905;28;20235;-73
2022/08/26 00:45:21;;;;;;;0.00;0.00;;;;;;;;;;5055011;28;20275;-72
2022/08/26 00:47:51;;;;;;;0.00;0.00;;;;;;;;;;5075997;28;20257;-74
2022/08/26 00:50:20;;;;;;;0.00;0.00;;;;;;;;;;5055045;28;20192;-73
2022/08/26 00:52:46;;;;;;;0.00;0.00;;;;;;;;;;5076749;28;20291;-73
2022/08/26 00:55:16;;;;;;;0.00;0.00;;;;;;;;;;5054171;28;20452;-72
2022/08/26 00:57:43;;;;;;;0.00;0.00;;;;;;;;;;5076960;28;20539;-73
2022/08/26 01:00:13;;;;;;;0.00;0.00;;;;;;;;;;5053477;28;20241;-73
2022/08/26 01:02:40;;;;;;;0.00;0.00;;;;;;;;;;5077278;28;20267;-74
2022/08/26 01:05:10;;;;;;;0.00;0.00;;;;;;;;;;5053360;28;20421;-72
2022/08/26 01:07:36;;;;;;;0.00;0.00;;;;;;;;;;5077579;28;20428;-72
2022/08/26 01:10:05;;;;;;;0.03;0.03;;;;;;;;;;5063081;28;20284;-73
2022/08/26 01:12:33;;;;;;;0.00;0.00;;;;;;;;;;5051515;28;20231;-74
2022/08/26 01:15:00;;;;;;;0.00;0.00;;;;;;;;;;5062694;28;20323;-74
2022/08/26 01:17:26;;;;;;;0.00;0.00;;;;;;;;;;5068088;28;20236;-74
2022/08/26 01:19:56;;;;;;;0.00;0.00;;;;;;;;;;5062731;28;20242;-74
2022/08/26 01:22:26;;;;;;;0.00;0.00;;;;;;;;;;5067904;28;20239;-73
2022/08/26 01:24:54;;;;;;;0.00;0.00;;;;;;;;;;5062796;28;20200;-73
2022/08/26 01:27:21;;;;;;;0.00;0.00;;;;;;;;;;5067676;28;20281;-74
2022/08/26 01:29:49;;;;;;;0.00;0.00;;;;;;;;;;5062313;28;20212;-74
2022/08/26 01:32:17;;;;;;;0.00;0.00;;;;;;;;;;5067463;28;20521;-74
2022/08/26 01:34:46;;;;;;;0.00;0.00;;;;;;;;;;5062673;28;20204;-73
2022/08/26 01:37:14;;;;;;;0.00;0.00;;;;;;;;;;5067653;28;20245;-73
2022/08/26 01:39:41;;;;;;;0.00;0.00;;;;;;;;;;5063025;28;20275;-74
2022/08/26 01:42:10;;;;;;;0.00;0.00;;;;;;;;;;5067814;28;20288;-73
2022/08/26 01:44:40;;;;;;;0.00;0.00;;;;;;;;;;5062362;28;20231;-73
2022/08/26 01:47:06;;;;;;;0.00;0.00;;;;;;;;;;5067581;28;20250;-74
2022/08/26 01:49:33;;;;;;;0.03;0.03;;;;;;;;;;5062658;28;20275;-73
2022/08/26 01:52:00;;;;;;;0.03;0.03;;;;;;;;;;5066730;28;20306;-73
2022/08/26 01:54:27;;;;;;;0.00;0.00;;;;;;;;;;5062680;28;20212;-74
2022/08/26 01:56:54;;;;;;;0.00;0.00;;;;;;;;;;5065690;28;20329;-73
2022/08/26 01:59:23;;;;;;;0.00;0.00;;;;;;;;;;5063327;28;20417;-73
2022/08/26 02:01:49;;;;;;;0.00;0.00;;;;;;;;;;5065317;28;20239;-73
2022/08/26 02:04:18;;;;;;;0.00;0.00;;;;;;;;;;5064214;28;20375;-74
2022/08/26 02:06:45;;;;;;;0.00;0.00;;;;;;;;;;5064767;28;20547;-73
2022/08/26 02:09:12;;;;;;;0.00;0.00;;;;;;;;;;5064205;28;20232;-73
2022/08/26 02:11:38;;;;;;;0.00;0.00;;;;;;;;;;5063927;28;20501;-73
2022/08/26 02:14:07;;;;;;;0.00;0.00;;;;;;;;;;5065334;28;20204;-73
2022/08/26 02:16:36;;;;;;;0.00;0.00;;;;;;;;;;5063215;28;20246;-73
2022/08/26 02:19:04;;;;;;;0.00;0.00;;;;;;;;;;5065826;28;20295;-73
2022/08/26 02:21:30;;;;;;;0.00;0.00;;;;;;;;;;5062667;28;20242;-73
2022/08/26 02:23:57;;;;;;;0.00;0.00;;;;;;;;;;5066262;28;20267;-73
2022/08/26 02:26:24;;;;;;;0.00;0.00;;;;;;;;;;5061896;28;20254;-73
2022/08/26 02:28:53;;;;;;;0.00;0.00;;;;;;;;;;5066974;28;20211;-73
2022/08/26 02:31:19;;;;;;;0.00;0.00;;;;;;;;;;5061188;28;20234;-73
2022/08/26 02:33:47;;;;;;;0.00;0.00;;;;;;;;;;5067555;28;20275;-74
2022/08/26 02:36:18;;;;;;;0.00;0.00;;;;;;;;;;5060291;28;20302;-74
2022/08/26 02:38:44;;;;;;;0.00;0.00;;;;;;;;;;5067878;28;20263;-74
2022/08/26 02:41:10;;;;;;;0.00;0.00;;;;;;;;;;5059975;28;20239;-73
2022/08/26 02:43:37;;;;;;;0.00;0.00;;;;;;;;;;5068652;28;20578;-73
2022/08/26 02:46:03;;;;;;;0.00;0.00;;;;;;;;;;5058931;28;20306;-73
2022/08/26 02:48:30;;;;;;;0.00;0.00;;;;;;;;;;5069700;28;20400;-74
2022/08/26 02:51:02;;;;;;;0.00;0.00;;;;;;;;;;5058140;28;20562;-72
2022/08/26 02:53:29;;;;;;;0.00;0.00;;;;;;;;;;5069974;28;20208;-74
2022/08/26 02:55:55;;;;;;;0.00;0.00;;;;;;;;;;5058128;28;20240;-73
2022/08/26 02:58:22;;;;;;;0.00;0.00;;;;;;;;;;5070323;28;20279;-73
2022/08/26 03:00:48;;;;;;;0.00;0.00;;;;;;;;;;5056847;28;20246;-72
2022/08/26 03:03:15;;;;;;;0.10;0.10;;;;;;;;;;5071144;28;20211;-73
2022/08/26 03:05:43;;;;;;;0.00;0.00;;;;;;;;;;5056065;28;20243;-73
2022/08/26 03:08:11;;;;;;;0.00;0.00;;;;;;;;;;5071926;28;20210;-73
2022/08/26 03:10:37;;;;;;;0.00;0.00;;;;;;;;;;5057846;28;20239;-73
2022/08/26 03:13:04;;;;;;;0.00;0.00;;;;;;;;;;5076379;28;20227;-73
2022/08/26 03:15:31;;;;;;;0.00;0.00;;;;;;;;;;5058067;28;20384;-72
2022/08/26 03:17:57;;;;;;;0.00;0.00;;;;;;;;;;5077008;28;20207;-73
2022/08/26 03:20:23;;;;;;;0.00;0.00;;;;;;;;;;5057342;28;20211;-73
2022/08/26 03:22:52;;;;;;;0.00;0.00;;;;;;;;;;5078202;28;20279;-73
2022/08/26 03:25:20;;;;;;;0.00;0.00;;;;;;;;;;5056557;28;20243;-73
2022/08/26 03:27:47;;;;;;;0.00;0.00;;;;;;;;;;5078461;28;20277;-74
2022/08/26 03:32:58;;;;;;;0.00;0.00;;;;;;;;;;5076833;28;20214;-72
2022/08/26 03:35:25;;;;;;;0.00;0.00;;;;;;;;;;5056985;28;20249;-73
2022/08/26 03:37:51;;;;;;;0.00;0.00;;;;;;;;;;5077456;28;20204;-73
2022/08/26 03:40:18;;;;;;;0.00;0.00;;;;;;;;;;5056077;28;20200;-72
2022/08/26 03:42:46;;;;;;;0.00;0.00;;;;;;;;;;5078364;28;20435;-72
2022/08/26 03:45:14;;;;;;;0.00;0.00;;;;;;;;;;5055599;28;20262;-72
2022/08/26 03:47:40;;;;;;;0.00;0.00;;;;;;;;;;5078823;28;20212;-73
2022/08/26 03:50:07;;;;;;;0.00;0.00;;;;;;;;;;5054551;28;20211;-72
2022/08/26 03:52:33;;;;;;;0.00;0.00;;;;;;;;;;5079496;28;20211;-73
2022/08/26 03:55:00;;;;;;;0.00;0.00;;;;;;;;;;5064652;28;20244;-72
2022/08/26 03:57:26;;;;;;;0.00;0.00;;;;;;;;;;5069313;28;20427;-73
2022/08/26 03:59:54;;;;;;;0.00;0.00;;;;;;;;;;5064099;28;20204;-73
2022/08/26 04:02:20;;;;;;;0.00;0.00;;;;;;;;;;5069139;28;20239;-74
2022/08/26 04:04:47;;;;;;;0.00;0.00;;;;;;;;;;5064033;28;20211;-74
2022/08/26 04:07:13;;;;;;;0.00;0.00;;;;;;;;;;5069203;28;20448;-73
2022/08/26 04:09:39;;;;;;;0.00;0.00;;;;;;;;;;5064152;28;20203;-73
2022/08/26 04:12:06;;;;;;;0.00;0.00;;;;;;;;;;5069483;28;20298;-73
2022/08/26 04:14:34;;;;;;;0.00;0.00;;;;;;;;;;5063848;28;20212;-73
2022/08/26 04:17:03;;;;;;;0.00;0.00;;;;;;;;;;5068428;28;20250;-73
2022/08/26 04:19:30;;;;;;;0.00;0.00;;;;;;;;;;5064152;28;20227;-74
2022/08/26 04:21:56;;;;;;;0.00;0.00;;;;;;;;;;5066750;28;20250;-73
2022/08/26 04:24:23;;;;;;;0.00;0.00;;;;;;;;;;5065044;28;20515;-73
2022/08/26 04:26:50;;;;;;;0.00;0.00;;;;;;;;;;5067265;28;20298;-74
2022/08/26 04:29:18;;;;;;;0.00;0.00;;;;;;;;;;5065866;28;20204;-73
2022/08/26 04:31:45;;;;;;;0.00;0.00;;;;;;;;;;5066368;28;20239;-74
2022/08/26 04:34:13;;;;;;;0.00;0.00;;;;;;;;;;5066158;28;20222;-73
2022/08/26 04:36:41;;;;;;;0.00;0.00;;;;;;;;;;5065421;28;20238;-74
2022/08/26 04:39:10;;;;;;;0.00;0.00;;;;;;;;;;5066841;28;20204;-74
2022/08/26 04:41:37;;;;;;;0.00;0.00;;;;;;;;;;5065114;28;20289;-73
2022/08/26 04:44:05;;;;;;;0.00;0.00;;;;;;;;;;5067387;28;20295;-73
2022/08/26 04:46:32;;;;;;;0.00;0.00;;;;;;;;;;5064258;28;20242;-74
2022/08/26 04:48:58;;;;;;;0.00;0.00;;;;;;;;;;5068138;28;20204;-74
2022/08/26 04:51:27;;;;;;;0.00;0.00;;;;;;;;;;5063545;28;20458;-74
2022/08/26 04:53:55;;;;;;;0.00;0.00;;;;;;;;;;5068669;28;20208;-73
2022/08/26 04:56:22;;;;;;;0.00;0.00;;;;;;;;;;5062859;28;20306;-74
2022/08/26 04:58:49;;;;;;;0.00;0.00;;;;;;;;;;5069119;28;20275;-73
2022/08/26 05:01:15;;;;;;;0.00;0.00;;;;;;;;;;5061781;28;20239;-70
2022/08/26 05:03:41;;;;;;;0.00;0.00;;;;;;;;;;5069755;28;20220;-72
2022/08/26 05:06:08;;;;;;;0.00;0.00;;;;;;;;;;5061181;28;20363;-74
2022/08/26 05:08:36;;;;;;;0.00;0.00;;;;;;;;;;5070413;28;20218;-73
2022/08/26 05:11:05;;;;;;;0.00;0.00;;;;;;;;;;5059898;28;20399;-72
2022/08/26 05:13:33;;;;;;;0.00;0.00;;;;;;;;;;5070607;28;20211;-73
2022/08/26 05:16:01;;;;;;;0.05;0.05;;;;;;;;;;5059925;28;20547;-74
2022/08/26 05:18:28;;;;;;;0.00;0.00;;;;;;;;;;5071542;28;20226;-73
2022/08/26 05:20:55;;;;;;;0.00;0.00;;;;;;;;;;5059429;28;20246;-73
2022/08/26 05:23:22;;;;;;;0.00;0.00;;;;;;;;;;5072065;28;20271;-74
2022/08/26 05:25:51;;;;;;;0.00;0.00;;;;;;;;;;5058466;28;20311;-73
2022/08/26 05:28:18;;;;;;;0.00;0.00;;;;;;;;;;5072742;28;20230;-73
2022/08/26 05:30:44;;;;;;;0.00;0.00;;;;;;;;;;5057702;28;20239;-74
2022/08/26 05:33:11;;;;;;;0.00;0.00;;;;;;;;;;5073019;28;20211;-73
2022/08/26 05:35:38;;;;;;;0.00;0.00;;;;;;;;;;5056852;28;20245;-74
2022/08/26 05:38:06;;;;;;;0.00;0.00;;;;;;;;;;5073889;28;20207;-74
2022/08/26 05:40:34;;;;;;;0.00;0.00;;;;;;;;;;5055740;28;20326;-73
2022/08/26 05:43:02;;;;;;;0.00;0.00;;;;;;;;;;5074293;28;20210;-73
2022/08/26 05:45:30;;;;;;;0.00;0.00;;;;;;;;;;5055303;28;20494;-73
2022/08/26 05:47:57;;;;;;;0.00;0.00;;;;;;;;;;5074062;28;20446;-73
2022/08/26 05:50:24;;;;;;;0.00;0.00;;;;;;;;;;5054669;28;20204;-75
2022/08/26 05:52:50;;;;;;;0.00;0.00;;;;;;;;;;5075365;28;20496;-74
2022/08/26 05:55:17;;;;;;;0.00;0.00;;;;;;;;;;5053745;28;20231;-74
2022/08/26 05:57:44;;;;;;;0.00;0.00;;;;;;;;;;5076086;28;20492;-73
2022/08/26 06:00:15;;;;;;;0.00;0.00;;;;;;;;;;5052723;28;20373;-73
2022/08/26 06:02:41;;;;;;;0.00;0.00;;;;;;;;;;5076453;28;20267;-72
2022/08/26 06:05:07;;;;;;;0.00;0.00;;;;;;;;;;5052285;28;20403;-72
2022/08/26 06:10:18;;;;;;;0.00;0.00;;;;;;;;;;5053724;28;20230;-74
2022/08/26 06:12:44;;;;;;;0.00;0.00;;;;;;;;;;5075527;28;20299;-73
2022/08/26 06:15:12;;;;;;;0.00;0.00;;;;;;;;;;5052832;28;20204;-74
2022/08/26 06:17:39;;;;;;;0.00;0.00;;;;;;;;;;5076416;28;20291;-73
2022/08/26 06:20:08;;;;;;;0.00;0.00;;;;;;;;;;5054489;28;20231;-72
2022/08/26 06:28:04;;;;;;;0.00;0.00;;;;;;;;;;5074384;28;20195;-74
2022/08/26 06:30:31;;;;;;;0.00;0.00;;;;;;;;;;5053132;28;20204;-72
2022/08/26 06:32:58;;;;;;;0.00;0.00;;;;;;;;;;5075269;28;20212;-74
2022/08/26 06:35:24;;;;;;;0.00;0.00;;;;;;;;;;5052846;28;20378;-74
2022/08/26 06:37:50;;;;;;;0.00;0.00;;;;;;;;;;5075843;28;20362;-72
2022/08/26 06:40:17;;;;;;;0.00;0.00;;;;;;;;;;5052462;28;20204;-73
2022/08/26 06:42:43;;;;;;;0.00;0.00;;;;;;;;;;5075857;28;20211;-74
2022/08/26 06:45:10;;;;;;;0.00;0.00;;;;;;;;;;5054220;28;20215;-72
2022/08/26 06:47:38;;;;;;;0.00;0.00;;;;;;;;;;5080522;28;20235;-73
2022/08/26 06:50:04;;;;;;;0.00;0.00;;;;;;;;;;5063011;28;20227;-71
2022/08/26 06:52:31;;;;;;;0.00;0.00;;;;;;;;;;5080784;28;20237;-74
2022/08/26 06:54:57;;;;;;;0.00;0.00;;;;;;;;;;5066019;28;20254;-74
2022/08/26 06:57:24;;;;;;;0.00;0.00;;;;;;;;;;5070975;28;20246;-74
2022/08/26 06:59:50;;;;;;;0.00;0.00;;;;;;;;;;5065357;28;20271;-73
2022/08/26 07:02:16;;;;;;;0.00;0.00;;;;;;;;;;5070910;28;20589;-73
2022/08/26 07:04:44;;;;;;;0.00;0.00;;;;;;;;;;5065847;28;20203;-74
2022/08/26 07:07:13;;;;;;;0.00;0.00;;;;;;;;;;5070615;28;20294;-74
2022/08/26 07:09:39;;;;;;;0.00;0.00;;;;;;;;;;5065606;28;20471;-73
2022/08/26 07:12:05;;;;;;;0.00;0.00;;;;;;;;;;5070520;28;20293;-74
2022/08/26 07:14:33;;;;;;;0.00;0.00;;;;;;;;;;5065289;28;20276;-73
2022/08/26 07:17:01;;;;;;;0.00;0.00;;;;;;;;;;5069488;28;20253;-73
2022/08/26 07:19:27;;;;;;;0.00;0.00;;;;;;;;;;5065497;28;20204;-73
2022/08/26 07:21:55;;;;;;;0.00;0.00;;;;;;;;;;5068622;28;20245;-73
2022/08/26 07:24:22;;;;;;;0.00;0.00;;;;;;;;;;5066653;28;20207;-74
2022/08/26 07:26:48;;;;;;;0.00;0.00;;;;;;;;;;5067685;28;20280;-73
2022/08/26 07:29:15;;;;;;;0.00;0.00;;;;;;;;;;5067531;28;20204;-73
2022/08/26 07:31:42;;;;;;;0.00;0.00;;;;;;;;;;5066065;28;20251;-73
2022/08/26 07:34:09;;;;;;;0.00;0.00;;;;;;;;;;5067626;28;20519;-72
2022/08/26 07:36:35;;;;;;;0.00;0.00;;;;;;;;;;5066293;28;20239;-73
2022/08/26 07:39:03;;;;;;;0.00;0.00;;;;;;;;;;5068521;28;20200;-73
2022/08/26 07:41:30;;;;;;;0.00;0.00;;;;;;;;;;5065436;28;20262;-74
2022/08/26 07:43:56;;;;;;;0.00;0.00;;;;;;;;;;5069203;28;20204;-73
2022/08/26 07:46:22;;;;;;;0.00;0.00;;;;;;;;;;5064261;28;20294;-74
2022/08/26 07:48:50;;;;;;;0.00;0.00;;;;;;;;;;5069895;28;20228;-72
2022/08/26 07:51:18;;;;;;;0.00;0.00;;;;;;;;;;5063346;28;20240;-73
2022/08/26 07:53:45;;;;;;;0.30;0.30;;;;;;;;;;5070336;28;20232;-71
2022/08/26 07:56:13;;;;;;;0.00;0.00;;;;;;;;;;5062024;28;20311;-73
2022/08/26 07:58:39;;;;;;;0.00;0.00;;;;;;;;;;5070779;28;20295;-71
2022/08/26 08:01:06;;;;;;;0.00;0.00;;;;;;;;;;5060558;28;20243;-73
2022/08/26 08:03:33;;;;;;;0.00;0.00;;;;;;;;;;5073099;28;20378;-73
2022/08/26 08:05:59;;;;;;;0.00;0.00;;;;;;;;;;5061125;28;20402;-73
2022/08/26 08:08:26;;;;;;;0.00;0.00;;;;;;;;;;5072677;28;20263;-72
2022/08/26 08:10:52;;;;;;;0.00;0.00;;;;;;;;;;5060154;28;20285;-73
2022/08/26 08:13:20;;;;;;;0.00;0.00;;;;;;;;;;5073556;28;20218;-72
2022/08/26 08:15:46;;;;;;;0.00;0.00;;;;;;;;;;5058264;28;20243;-72
2022/08/26 08:18:13;;;;;;;0.00;0.00;;;;;;;;;;5075500;28;20228;-73
2022/08/26 08:20:39;;;;;;;0.00;0.00;;;;;;;;;;5057089;28;20235;-73
2022/08/26 08:23:05;;;;;;;0.08;0.08;;;;;;;;;;5076567;28;20451;-72
2022/08/26 08:25:33;;;;;;;0.00;0.00;;;;;;;;;;5056757;28;20250;-73
2022/08/26 08:27:59;;;;;;;0.00;0.00;;;;;;;;;;5076135;28;20200;-73
2022/08/26 08:30:27;;;;;;;0.00;0.00;;;;;;;;;;5056622;28;20285;-72
2022/08/26 08:32:54;;;;;;;0.00;0.00;;;;;;;;;;5076994;28;20495;-74
2022/08/26 08:35:22;;;;;;;0.00;0.00;;;;;;;;;;5055703;28;20204;-80
2022/08/26 08:37:50;;;;;;;0.00;0.00;;;;;;;;;;5077545;28;20454;-75
2022/08/26 08:40:17;;;;;;;0.00;0.00;;;;;;;;;;5054579;28;20216;-78
2022/08/26 08:42:45;;;;;;;0.00;0.00;;;;;;;;;;5079223;28;20223;-77
2022/08/26 08:45:14;;;;;;;0.00;0.00;;;;;;;;;;5063770;28;20310;-76
2022/08/26 08:47:44;;;;;;;0.00;0.00;;;;;;;;;;5052762;28;20222;-75
2022/08/26 08:50:17;;;;;;;0.10;0.10;;;;;;;;;;5053549;28;20508;-74
2022/08/26 08:52:44;;;;;;;0.00;0.00;;;;;;;;;;5077665;28;20271;-73
2022/08/26 08:55:13;;;;;;;0.00;0.00;;;;;;;;;;5053909;28;20243;-75
2022/08/26 08:57:50;;;;;;;0.00;0.00;;;;;;;;;;5078007;28;20472;-76
2022/08/26 09:00:20;;;;;;;0.00;0.00;;;;;;;;;;5055168;28;20336;-71
2022/08/26 09:02:52;;;;;;;0.00;0.00;;;;;;;;;;5077320;28;20203;-72
2022/08/26 09:05:21;;;;;;;0.00;0.00;;;;;;;;;;5055119;28;20192;-72
2022/08/26 09:07:48;;;;;;;0.00;0.00;;;;;;;;;;5076377;28;20493;-72
2022/08/26 09:10:25;;;;;;;0.00;0.00;;;;;;;;;;5054197;28;20271;-72
2022/08/26 09:12:52;;;;;;;0.00;0.00;;;;;;;;;;5076429;28;20547;-72
2022/08/26 09:15:20;;;;;;;0.00;0.00;;;;;;;;;;5054195;28;20400;-73
2022/08/26 09:17:50;;;;;;;0.00;0.00;;;;;;;;;;5076830;28;20450;-71
2022/08/26 09:20:23;;;;;;;0.00;0.00;;;;;;;;;;5054432;28;20239;-72
2022/08/26 09:22:50;;;;;;;0.00;0.00;;;;;;;;;;5075999;28;20374;-72
2022/08/26 09:25:16;;;;;;;0.00;0.00;;;;;;;;;;5053762;28;20270;-70
2022/08/26 09:27:44;;;;;;;0.00;0.00;;;;;;;;;;5076962;28;20235;-70
2022/08/26 09:30:12;;;;;;;0.00;0.00;;;;;;;;;;5062680;28;20276;-71
2022/08/26 09:32:38;;;;;;;0.00;0.00;;;;;;;;;;5067947;28;20246;-72
2022/08/26 09:35:06;;;;;;;0.00;0.00;;;;;;;;;;5060798;28;20211;-72
2022/08/26 09:37:35;;;;;;;0.00;0.00;;;;;;;;;;5077578;28;20302;-72
2022/08/26 09:40:17;;;;;;;0.00;0.00;;;;;;;;;;5062846;28;20280;-72
2022/08/26 09:42:43;;;;;;;0.00;0.00;;;;;;;;;;5060692;28;20199;-72
2022/08/26 09:45:11;;;;;;;0.00;0.00;;;;;;;;;;5053199;28;20212;-68
2022/08/26 09:47:38;;;;;;;0.00;0.00;;;;;;;;;;5077224;28;20199;-72
2022/08/26 09:50:09;;;;;;;0.00;0.00;;;;;;;;;;5060202;28;20263;-72
2022/08/26 09:52:37;;;;;;;0.00;0.00;;;;;;;;;;5077276;28;20312;-72
2022/08/26 09:55:07;;;;;;;0.00;0.00;;;;;;;;;;5062465;28;20208;-78
2022/08/26 09:57:34;;;;;;;0.00;0.00;;;;;;;;;;5059293;28;20223;-77
2022/08/26 10:00:01;;;;;;;0.00;0.00;;;;;;;;;;5063152;28;20204;-79
2022/08/26 10:02:40;;;;;;;0.00;0.00;;;;;;;;;;5067558;28;20247;-72
2022/08/26 10:05:08;;;;;;;0.00;0.00;;;;;;;;;;5057887;28;20480;-73
2022/08/26 10:07:42;;;;;;;0.00;0.00;;;;;;;;;;5077156;28;20231;-73
2022/08/26 10:10:10;;;;;;;0.00;0.00;;;;;;;;;;5052352;28;20264;-68
2022/08/26 10:12:39;;;;;;;0.00;0.00;;;;;;;;;;5077106;28;20208;-72
2022/08/26 10:15:09;;;;;;;0.00;0.00;;;;;;;;;;5053818;28;20452;-73
2022/08/26 10:17:38;;;;;;;0.00;0.00;;;;;;;;;;5077275;28;20270;-72
2022/08/26 10:20:06;;;;;;;0.00;0.00;;;;;;;;;;5061541;28;20271;-73
2022/08/26 10:22:35;;;;;;;0.00;0.00;;;;;;;;;;5050847;28;20305;-73
2022/08/26 10:25:04;;;;;;;0.00;0.00;;;;;;;;;;5062222;28;20210;-74
2022/08/26 10:27:35;;;;;;;0.00;0.00;;;;;;;;;;5050957;28;20224;-73
2022/08/26 10:30:05;;;;;;;0.00;0.00;;;;;;;;;;5062388;28;20223;-72
2022/08/26 10:32:34;;;;;;;0.00;0.00;;;;;;;;;;5050801;28;20215;-72
2022/08/26 10:35:01;;;;;;;0.00;0.00;;;;;;;;;;5062498;28;20261;-72
2022/08/26 10:37:33;;;;;;;0.00;0.00;;;;;;;;;;5067488;28;20243;-72
2022/08/26 10:40:02;;;;;;;0.00;0.00;;;;;;;;;;5062560;28;20192;-72
2022/08/26 10:42:34;;;;;;;0.00;0.00;;;;;;;;;;5067595;28;20255;-72
2022/08/26 10:45:05;;;;;;;0.00;0.00;;;;;;;;;;5062532;28;20212;-72
2022/08/26 10:47:34;;;;;;;0.00;0.00;;;;;;;;;;5051034;28;20369;-70
2022/08/26 10:50:03;;;;;;;0.00;0.00;;;;;;;;;;5062485;28;20204;-72
2022/08/26 10:52:33;;;;;;;0.30;0.30;;;;;;;;;;5067576;28;20337;-73
2022/08/26 10:55:05;;;;;;;0.00;0.00;;;;;;;;;;5062283;28;20259;-74
2022/08/26 10:57:39;;;;;;;0.00;0.00;;;;;;;;;;5051268;28;20203;-72
2022/08/26 11:01:40;;;;;;;0.00;0.00;;;;;;;;;;5056757;28;20191;-73
2022/08/26 11:02:59;;;;;;;0.00;0.00;;;;;;;;;;5062307;28;20211;-74
2022/08/26 11:05:26;;;;;;;0.00;0.00;;;;;;;;;;5054615;28;20543;-74
2022/08/26 11:07:55;;;;;;;0.00;0.00;;;;;;;;;;5074981;28;20236;-73
2022/08/26 11:10:40;;;;;;;0.00;0.00;;;;;;;;;;5054165;28;20470;-74
2022/08/26 11:13:07;;;;;;;0.00;0.00;;;;;;;;;;5072905;28;20272;-74
2022/08/26 11:15:49;;;;;;;0.00;0.00;;;;;;;;;;5055762;28;20535;-74
2022/08/26 11:18:36;;;;;;;0.00;0.00;;;;;;;;;;5059326;28;20419;-73
2022/08/26 11:21:03;;;;;;;0.00;0.00;;;;;;;;;;5058990;28;20250;-74
2022/08/26 11:23:47;;;;;;;0.00;0.00;;;;;;;;;;5070102;28;20277;-73
2022/08/26 11:26:14;;;;;;;0.00;0.00;;;;;;;;;;5060740;28;20238;-73
2022/08/26 11:28:46;;;;;;;0.00;0.00;;;;;;;;;;5068217;28;20226;-74
2022/08/26 11:31:33;;;;;;;0.00;0.00;;;;;;;;;;5060758;28;20302;-74
2022/08/26 11:34:00;;;;;;;0.00;0.00;;;;;;;;;;5069569;28;20336;-73
2022/08/26 11:36:39;;;;;;;0.00;0.00;;;;;;;;;;5053165;28;20239;-74
2022/08/26 11:39:14;;;;;;;0.00;0.00;;;;;;;;;;5065741;28;20231;-73
2022/08/26 11:41:44;;;;;;;0.00;0.00;;;;;;;;;;5067206;28;20276;-66
2022/08/26 11:44:15;;;;;;;0.00;0.00;;;;;;;;;;5067908;28;20211;-66
2022/08/26 11:46:51;;;;;;;0.00;0.00;;;;;;;;;;5067143;28;20243;-67
2022/08/26 11:49:17;;;;;;;0.00;0.00;;;;;;;;;;5066964;28;20275;-68
2022/08/26 11:51:43;;;;;;;0.00;0.00;;;;;;;;;;5067560;28;20495;-66
2022/08/26 11:54:11;;;;;;;0.00;0.00;;;;;;;;;;5067684;28;20391;-66
2022/08/26 11:56:39;;;;;;;0.00;0.00;;;;;;;;;;5066355;28;20243;-65
2022/08/26 11:59:08;;;;;;;0.00;0.00;;;;;;;;;;5068165;28;20234;-66
2022/08/26 12:01:37;;;;;;;0.00;0.00;;;;;;;;;;5065273;28;20239;-67
2022/08/26 12:04:05;;;;;;;0.00;0.00;;;;;;;;;;5069133;28;20218;-66
2022/08/26 12:06:34;;;;;;;0.00;0.00;;;;;;;;;;5065725;28;20250;-67
2022/08/26 12:09:02;;;;;;;0.00;0.00;;;;;;;;;;5068728;28;20271;-67
2022/08/26 12:11:29;;;;;;;0.00;0.00;;;;;;;;;;5065202;28;20307;-67
2022/08/26 12:13:57;;;;;;;0.00;0.00;;;;;;;;;;5069121;28;20557;-67
2022/08/26 12:16:24;;;;;;;0.00;0.00;;;;;;;;;;5064483;28;20238;-67
2022/08/26 12:18:52;;;;;;;0.00;0.00;;;;;;;;;;5069589;28;20224;-67
2022/08/26 12:21:21;;;;;;;0.00;0.00;;;;;;;;;;5063761;28;20501;-69
2022/08/26 12:23:49;;;;;;;0.00;0.00;;;;;;;;;;5070082;28;20204;-66
2022/08/26 12:26:21;;;;;;;0.00;0.00;;;;;;;;;;5063262;28;20246;-66
2022/08/26 12:28:49;;;;;;;0.00;0.00;;;;;;;;;;5070147;28;20283;-66
2022/08/26 12:31:20;;;;;;;0.00;0.00;;;;;;;;;;5063193;28;20304;-66
2022/08/26 12:33:48;;;;;;;0.00;0.00;;;;;;;;;;5069949;28;20231;-65
2022/08/26 12:36:19;;;;;;;0.00;0.00;;;;;;;;;;5063204;28;20307;-66
2022/08/26 12:38:46;;;;;;;0.00;0.00;;;;;;;;;;5070030;28;20259;-65
2022/08/26 12:41:33;;;;;;;0.00;0.00;;;;;;;;;;5062523;28;20250;-65
2022/08/26 12:43:59;;;;;;;0.00;0.00;;;;;;;;;;5067501;28;20429;-64
2022/08/26 12:46:27;;;;;;;0.00;0.00;;;;;;;;;;5063718;28;20361;-65
2022/08/26 12:48:53;;;;;;;0.00;0.00;;;;;;;;;;5068495;28;20219;-65
2022/08/26 12:51:24;;;;;;;0.00;0.00;;;;;;;;;;5062819;28;20255;-65
2022/08/26 12:53:51;;;;;;;0.00;0.00;;;;;;;;;;5069087;28;20261;-66
2022/08/26 12:56:19;;;;;;;0.00;0.00;;;;;;;;;;5062602;28;20253;-66
2022/08/26 12:58:59;;;;;;;0.00;0.00;;;;;;;;;;5069325;28;20234;-67
2022/08/26 13:01:25;;;;;;;0.00;0.00;;;;;;;;;;5063778;28;20519;-65
2022/08/26 13:03:52;;;;;;;0.00;0.00;;;;;;;;;;5068584;28;20204;-66
2022/08/26 13:06:28;;;;;;;0.00;0.00;;;;;;;;;;5062791;28;20250;-66
2022/08/26 13:08:56;;;;;;;0.00;0.00;;;;;;;;;;5068549;28;20195;-66
2022/08/26 13:11:24;;;;;;;0.00;0.00;;;;;;;;;;5063451;28;20412;-68
2022/08/26 13:13:52;;;;;;;0.00;0.00;;;;;;;;;;5068848;28;20250;-66
2022/08/26 13:16:18;;;;;;;0.00;0.00;;;;;;;;;;5062531;28;20269;-67
2022/08/26 13:18:45;;;;;;;0.00;0.00;;;;;;;;;;5069397;28;20401;-67
2022/08/26 13:21:13;;;;;;;0.00;0.00;;;;;;;;;;5061526;28;20239;-66
2022/08/26 13:23:40;;;;;;;0.00;0.00;;;;;;;;;;5070072;28;20396;-68
2022/08/26 13:26:07;;;;;;;0.00;0.00;;;;;;;;;;5061025;28;20252;-66
2022/08/26 13:28:33;;;;;;;0.00;0.00;;;;;;;;;;5070517;28;20200;-65
2022/08/26 13:31:00;;;;;;;0.00;0.00;;;;;;;;;;5060118;28;20566;-67
2022/08/26 13:33:27;;;;;;;0.00;0.00;;;;;;;;;;5071631;28;20437;-65
2022/08/26 13:35:54;;;;;;;0.00;0.00;;;;;;;;;;5059123;28;20326;-65
2022/08/26 13:38:20;;;;;;;0.00;0.00;;;;;;;;;;5071955;28;20275;-66
2022/08/26 13:40:48;;;;;;;0.00;0.00;;;;;;;;;;5058162;28;20289;-66
2022/08/26 13:43:15;;;;;;;0.00;0.00;;;;;;;;;;5072982;28;20391;-65
2022/08/26 13:45:41;;;;;;;0.00;0.00;;;;;;;;;;5057180;28;20245;-65
2022/08/26 13:48:08;;;;;;;0.00;0.00;;;;;;;;;;5073813;28;20204;-65
2022/08/26 13:50:35;;;;;;;0.00;0.00;;;;;;;;;;5056364;28;20270;-64
2022/08/26 13:53:01;;;;;;;0.00;0.00;;;;;;;;;;5073852;28;20234;-65
2022/08/26 13:55:28;;;;;;;0.00;0.00;;;;;;;;;;5055138;28;20373;-65
2022/08/26 13:57:55;;;;;;;0.00;0.00;;;;;;;;;;5075353;28;20242;-65
2022/08/26 14:00:22;;;;;;;0.00;0.00;;;;;;;;;;5054325;28;20400;-65
2022/08/26 14:02:49;;;;;;;0.00;0.00;;;;;;;;;;5075962;28;20204;-65
2022/08/26 14:05:15;;;;;;;0.00;0.00;;;;;;;;;;5053674;28;20254;-64
2022/08/26 14:07:42;;;;;;;0.10;0.10;;;;;;;;;;5076622;28;20272;-65
2022/08/26 14:10:08;;;;;;;0.00;0.00;;;;;;;;;;5052545;28;20271;-65
2022/08/26 14:12:35;;;;;;;0.00;0.00;;;;;;;;;;5076929;28;20204;-65
2022/08/26 14:15:03;;;;;;;0.00;0.00;;;;;;;;;;5062338;28;20208;-65
2022/08/26 14:17:31;;;;;;;0.00;0.00;;;;;;;;;;5067230;28;20239;-66
2022/08/26 14:19:57;;;;;;;0.00;0.00;;;;;;;;;;5062404;28;20224;-66
2022/08/26 14:22:24;;;;;;;0.00;0.00;;;;;;;;;;5067327;28;20254;-66
2022/08/26 14:24:50;;;;;;;0.00;0.00;;;;;;;;;;5062264;28;20204;-65
2022/08/26 14:27:17;;;;;;;0.00;0.00;;;;;;;;;;5067076;28;20294;-65
2022/08/26 14:29:44;;;;;;;0.00;0.00;;;;;;;;;;5062251;28;20387;-65
2022/08/26 14:32:13;;;;;;;0.00;0.00;;;;;;;;;;5066927;28;20243;-65
2022/08/26 14:34:39;;;;;;;0.00;0.00;;;;;;;;;;5062582;28;20275;-65
2022/08/26 14:37:06;;;;;;;0.00;0.00;;;;;;;;;;5067379;28;20543;-65
2022/08/26 14:39:33;;;;;;;0.00;0.00;;;;;;;;;;5062219;28;20293;-65
2022/08/26 14:41:59;;;;;;;0.00;0.00;;;;;;;;;;5066447;28;20502;-66
2022/08/26 14:44:27;;;;;;;0.00;0.00;;;;;;;;;;5063050;28;20204;-65
2022/08/26 14:46:54;;;;;;;0.00;0.00;;;;;;;;;;5065530;28;20507;-66
2022/08/26 14:49:22;;;;;;;0.00;0.00;;;;;;;;;;5063495;28;20272;-65
2022/08/26 14:51:49;;;;;;;0.00;0.00;;;;;;;;;;5065217;28;20578;-66
2022/08/26 14:54:18;;;;;;;0.00;0.00;;;;;;;;;;5064212;28;20211;-65
2022/08/26 14:56:47;;;;;;;0.00;0.00;;;;;;;;;;5064511;28;20247;-66
2022/08/26 14:59:14;;;;;;;0.00;0.00;;;;;;;;;;5064276;28;20224;-66